»·PEaware :: JUS326 KBFI-KGEG

JUS326 :: KBFI-KGEG

FLIGHT INFORMATION

Flight Status: Arrived
Operator:
USA Jet
More flights by this operator :: More flights under this callsign
Pilot: Erik S. (3779)
Aircraft: BOEING 737-300
(B733)
More flights by this aircraft type
Origin: KBFI Boeing Field/King Co Intl
United States
Destination: KGEG Spokane Intl
United States
More flights between these airports :: More routes between these airports
Route: +CBAIN1 ZADON ZELAK ZIRAN ZOOMR ZOOMR1
File this flight plan on PilotEdge
Remarks:
Altitude:
(Current/Filed)
29,000ft
Speed:
(Current/Filed)
400kts
Departed: 20-Dec-17 08:32 AM
Arrived: 20-Dec-17 09:14 AM
Distance/Time
Traveled:
193nm/0:41
Distance/Time
To Go:
Arrived

Flight Plot

Page will automatically refresh every two minutes.

Flight plan parsing failed; only flown route is shown


Map Options




Map Legend


Flown Route
Filed Route
Departure Airport
Arrival Airport
Navaid (VOR, NDB)
Fix

Horizontal Profiles

Position Reports

Time Latitude Longitude Heading Altitude Ground
Speed
20-Dec-17 08:18 47.532868 -122.308729 238 27ft 0kts
20-Dec-17 08:19 47.532868 -122.308729 238 27ft 0kts
20-Dec-17 08:20 47.532868 -122.308729 238 27ft 0kts
20-Dec-17 08:21 47.532868 -122.308729 238 27ft 0kts
20-Dec-17 08:22 47.532868 -122.308729 238 27ft 0kts
20-Dec-17 08:23 47.532868 -122.308729 238 27ft 0kts
20-Dec-17 08:24 47.532868 -122.308729 238 27ft 0kts
20-Dec-17 08:25 47.532868 -122.308729 238 27ft 0kts
20-Dec-17 08:26 47.532868 -122.308729 238 27ft 0kts
20-Dec-17 08:27 47.532868 -122.308729 238 27ft 0kts
20-Dec-17 08:28 47.532931 -122.308573 239 27ft 0kts
20-Dec-17 08:29 47.533325 -122.308172 153 27ft 0kts
20-Dec-17 08:30 47.533441 -122.308295 137 27ft 0kts
20-Dec-17 08:31 47.533440 -122.308294 137 27ft 0kts
20-Dec-17 08:32 47.532833 -122.306362 150 27ft 9kts
20-Dec-17 08:33 47.529702 -122.303708 150 27ft 16kts
20-Dec-17 08:34 47.524821 -122.299607 149 27ft 23kts
20-Dec-17 08:35 47.519009 -122.294788 150 27ft 17kts
20-Dec-17 08:36 47.516928 -122.293093 148 27ft 0kts
20-Dec-17 08:37 47.517046 -122.291593 346 27ft 13kts
20-Dec-17 08:38 47.543860 -122.315007 327 746ft 189kts
20-Dec-17 08:39 47.590817 -122.356297 318 2043ft 201kts
20-Dec-17 08:40 47.631389 -122.425712 311 3894ft 251kts
20-Dec-17 08:41 47.690622 -122.440860 46 6009ft 263kts
20-Dec-17 08:42 47.726853 -122.344677 88 7230ft 284kts
20-Dec-17 08:43 47.681420 -122.251760 109 10234ft 292kts
20-Dec-17 08:44 47.649127 -122.125943 108 11922ft 343kts
20-Dec-17 08:45 47.614975 -121.991396 106 14364ft 357kts
20-Dec-17 08:46 47.585695 -121.849474 100 16515ft 369kts
20-Dec-17 08:47 47.561560 -121.704171 85 18845ft 361kts
20-Dec-17 08:48 47.560116 -121.553025 85 20618ft 373kts
20-Dec-17 08:49 47.557834 -121.397123 85 22240ft 384kts
20-Dec-17 08:50 47.555383 -121.237720 84 23798ft 392kts
20-Dec-17 08:51 47.552616 -121.074188 85 25120ft 402kts
20-Dec-17 08:52 47.549586 -120.907629 86 26321ft 412kts
20-Dec-17 08:53 47.546924 -120.745649 86 27964ft 404kts
20-Dec-17 08:54 47.543562 -120.585161 86 29025ft 408kts
20-Dec-17 08:55 47.538846 -120.412349 88 28982ft 436kts
20-Dec-17 08:56 47.530453 -120.229779 88 29060ft 447kts
20-Dec-17 08:57 47.521861 -120.045963 88 29059ft 448kts
20-Dec-17 08:58 47.513129 -119.863283 89 29012ft 448kts
20-Dec-17 08:59 47.504422 -119.680479 89 29024ft 448kts
20-Dec-17 09:00 47.494933 -119.496528 89 29032ft 451kts
20-Dec-17 09:01 47.485174 -119.314382 89 29029ft 448kts
20-Dec-17 09:02 47.475169 -119.133665 89 27503ft 442kts
20-Dec-17 09:03 47.465473 -118.961789 90 24936ft 412kts
20-Dec-17 09:04 47.456697 -118.802062 92 22861ft 405kts
20-Dec-17 09:05 47.447636 -118.648639 93 20735ft 378kts
20-Dec-17 09:06 47.438608 -118.502163 93 18733ft 371kts
20-Dec-17 09:07 47.429853 -118.361067 94 16711ft 364kts
20-Dec-17 09:08 47.443638 -118.220933 71 14654ft 354kts
20-Dec-17 09:09 47.471253 -118.087144 71 12748ft 340kts
20-Dec-17 09:10 47.498042 -117.956527 71 10840ft 324kts
20-Dec-17 09:11 47.504620 -117.830976 88 10103ft 288kts
20-Dec-17 09:12 47.506460 -117.718228 88 8703ft 271kts
20-Dec-17 09:13 47.508038 -117.609934 89 7287ft 262kts
20-Dec-17 09:14 47.509287 -117.503245 89 6255ft 239kts
20-Dec-17 09:15 47.516696 -117.407716 60 5766ft 233kts
20-Dec-17 09:16 47.563809 -117.400912 318 4557ft 195kts
20-Dec-17 09:17 47.606577 -117.434793 334 3857ft 159kts
20-Dec-17 09:18 47.617676 -117.486067 261 2891ft 138kts
20-Dec-17 09:19 47.616877 -117.538132 270 2382ft 87kts
20-Dec-17 09:20 47.618167 -117.552515 67 2382ft 15kts
20-Dec-17 09:21 47.618164 -117.544015 91 2382ft 28kts
20-Dec-17 09:22 47.622451 -117.535535 46 2382ft 26kts
20-Dec-17 09:23 47.627195 -117.529986 317 2382ft 14kts
20-Dec-17 09:24 47.627410 -117.530281 318 2382ft 0kts
20-Dec-17 09:25 47.627410 -117.530281 318 2382ft 0kts
20-Dec-17 09:26 47.627410 -117.530281 318 2382ft 0kts
20-Dec-17 09:27 47.627410 -117.530281 318 2382ft 0kts
20-Dec-17 09:28 47.627410 -117.530281 318 2382ft 0kts
20-Dec-17 09:29 47.627410 -117.530281 318 2382ft 0kts
20-Dec-17 09:30 47.627410 -117.530281 318 2382ft 0kts
20-Dec-17 09:31 47.627410 -117.530281 318 2382ft 0kts
20-Dec-17 09:32 47.627410 -117.530281 318 2382ft 0kts
20-Dec-17 09:33 47.627410 -117.530281 318 2382ft 0kts
20-Dec-17 09:34 47.627410 -117.530281 318 2382ft 0kts

Navigation Log

Ident Type
Flight plan parsing failed, navigation log unavailable